Sligo Airport - TAF
(Terminal Area Forecast)

Issued at 03:06 UTC on Sun. 26-Feb-17

--- METARS(SA) ---

METAR EISG(SLIGO) 260300Z AUTO 16010G21KT 140V200 9000 OVC022 07/05

Q0994 =

--- TAFS() ---

TAF EISG(SLIGO) 260200Z 2603/2612 19017G28KT 9999 SCT018 BKN025

TEMPO 2603/2606 20020G35KT 4000 RA BKN008 BECMG 2605/2607 26017G28KT

TEMPO 2606/2609 4000 RA BKN010 BECMG 2608/2609 17012KT BECMG 2610/2612

25018G30KT TEMPO 2611/2612 4000 RA SCT006 BKN010 =

--- SIGMETS(WS) ---

IE - No VALID SIGMETS/Warnings FOR THIS AREA

--- SIGMETS Volcanic(WV) ---

IE - No VALID SIGMETS/Warnings FOR THIS AREA

--- SIGMETS(WS) ---

UK - No VALID SIGMETS/Warnings FOR THIS AREA

Sligo Airport - METARs

Latest METARs for Sligo and Donegal Airports - updated every 30 mins